createdAt,value
2017-10-06T00:00:33.810Z,991.64
2017-10-06T00:01:33.805Z,991.54
2017-10-06T00:02:33.802Z,991.63
2017-10-06T00:03:33.798Z,991.65
2017-10-06T00:04:33.793Z,991.63
2017-10-06T00:05:33.791Z,991.67
2017-10-06T00:06:33.787Z,991.65
2017-10-06T00:07:33.807Z,991.7
2017-10-06T00:08:33.780Z,991.67
2017-10-06T00:09:33.774Z,991.67
2017-10-06T00:10:33.773Z,991.65
2017-10-06T00:11:33.770Z,991.66
2017-10-06T00:12:33.764Z,991.7
2017-10-06T00:13:33.760Z,991.71
2017-10-06T00:14:33.757Z,991.72
2017-10-06T00:15:33.753Z,991.71
2017-10-06T00:16:33.750Z,991.75
2017-10-06T00:17:33.746Z,991.76
2017-10-06T00:18:33.743Z,991.81
2017-10-06T00:19:33.738Z,991.79
2017-10-06T00:20:33.737Z,991.77
2017-10-06T00:21:33.731Z,991.8
2017-10-06T00:22:33.727Z,991.79
2017-10-06T00:23:33.726Z,991.79
2017-10-06T00:24:33.720Z,991.81
2017-10-06T00:25:33.715Z,991.76
2017-10-06T00:26:33.712Z,991.8
2017-10-06T00:27:33.709Z,991.82
2017-10-06T00:28:33.704Z,991.8
2017-10-06T00:29:33.701Z,991.85
2017-10-06T00:30:33.698Z,991.9
2017-10-06T00:31:33.694Z,991.88
2017-10-06T00:32:33.690Z,991.86
2017-10-06T00:33:33.690Z,991.84
2017-10-06T00:34:33.683Z,991.88
2017-10-06T00:35:33.680Z,991.84
2017-10-06T00:36:33.675Z,991.88
2017-10-06T00:37:33.672Z,991.92
2017-10-06T00:38:33.668Z,991.89
2017-10-06T00:39:33.667Z,991.88
2017-10-06T00:40:33.660Z,991.89
2017-10-06T00:41:33.656Z,991.94
2017-10-06T00:42:33.652Z,991.92
2017-10-06T00:43:33.648Z,991.94
2017-10-06T00:44:33.644Z,991.96
2017-10-06T00:45:33.640Z,991.98
2017-10-06T00:46:33.636Z,991.97
2017-10-06T00:47:33.641Z,991.96
2017-10-06T00:48:33.629Z,991.94
2017-10-06T00:49:33.624Z,991.95
2017-10-06T00:50:33.622Z,992
2017-10-06T00:51:33.619Z,991.98
2017-10-06T00:52:33.614Z,991.98
2017-10-06T00:53:33.610Z,991.95
2017-10-06T00:54:33.611Z,991.99
2017-10-06T00:55:33.602Z,991.98
2017-10-06T00:56:33.610Z,991.97
2017-10-06T00:57:33.595Z,991.97
2017-10-06T00:58:33.591Z,992
2017-10-06T00:59:33.587Z,991.99
2017-10-06T01:00:36.185Z,992.01
2017-10-06T01:01:33.580Z,991.98
2017-10-06T01:02:33.579Z,992.04
2017-10-06T01:03:33.579Z,992.04
2017-10-06T01:04:33.567Z,992.03
2017-10-06T01:05:33.565Z,992.05
2017-10-06T01:06:33.559Z,991.98
2017-10-06T01:07:33.558Z,992.06
2017-10-06T01:08:33.551Z,992.03
2017-10-06T01:09:33.548Z,992.06
2017-10-06T01:10:33.544Z,992
2017-10-06T01:11:33.541Z,992.02
2017-10-06T01:12:33.558Z,992.04
2017-10-06T01:13:33.533Z,992.04
2017-10-06T01:14:33.529Z,992.08
2017-10-06T01:15:33.535Z,992.07
2017-10-06T01:16:33.525Z,992.06
2017-10-06T01:17:33.524Z,992.02
2017-10-06T01:18:33.514Z,992.07
2017-10-06T01:19:33.510Z,992.08
2017-10-06T01:20:33.507Z,992.02
2017-10-06T01:21:33.503Z,991.98
2017-10-06T01:22:33.500Z,991.99
2017-10-06T01:23:33.496Z,992.01
2017-10-06T01:24:33.493Z,992.03
2017-10-06T01:25:33.493Z,992.01
2017-10-06T01:26:33.489Z,991.96
2017-10-06T01:27:33.486Z,992
2017-10-06T01:28:33.476Z,992.04
2017-10-06T01:29:33.476Z,991.98
2017-10-06T01:30:33.471Z,992.05
2017-10-06T01:31:33.469Z,992.03
2017-10-06T01:32:33.464Z,991.95
2017-10-06T01:33:33.460Z,991.95
2017-10-06T01:34:33.456Z,992.05
2017-10-06T01:35:33.454Z,991.99
2017-10-06T01:36:33.449Z,992.02
2017-10-06T01:37:33.448Z,991.98
2017-10-06T01:38:33.447Z,992.01
2017-10-06T01:39:33.448Z,992.02
2017-10-06T01:40:33.436Z,992.01
2017-10-06T01:41:33.435Z,991.97
2017-10-06T01:42:33.432Z,992.02
2017-10-06T01:43:33.430Z,992.03
2017-10-06T01:44:33.421Z,992.05
2017-10-06T01:45:33.422Z,992.08
2017-10-06T01:46:33.415Z,992.03
2017-10-06T01:47:33.411Z,992.1
2017-10-06T01:48:33.407Z,992.08
2017-10-06T01:49:33.403Z,992.09
2017-10-06T01:50:33.400Z,992.12
2017-10-06T01:51:33.396Z,992.15
2017-10-06T01:52:33.394Z,992.17
2017-10-06T01:53:33.395Z,992.17
2017-10-06T01:54:33.394Z,992.15
2017-10-06T01:55:33.384Z,992.15
2017-10-06T01:56:33.380Z,992.15
2017-10-06T01:57:33.375Z,992.13
2017-10-06T01:58:33.372Z,992.16
2017-10-06T01:59:33.368Z,992.16
2017-10-06T02:00:33.364Z,992.17
2017-10-06T02:01:35.812Z,992.16
2017-10-06T02:02:33.355Z,992.21
2017-10-06T02:03:33.353Z,992.21
2017-10-06T02:04:33.350Z,992.23
2017-10-06T02:05:33.347Z,992.26
2017-10-06T02:06:33.342Z,992.2
2017-10-06T02:07:33.338Z,992.2
2017-10-06T02:08:33.343Z,992.24
2017-10-06T02:09:33.332Z,992.31
2017-10-06T02:10:33.329Z,992.3
2017-10-06T02:11:33.323Z,992.3
2017-10-06T02:12:33.341Z,992.27
2017-10-06T02:13:33.317Z,992.31
2017-10-06T02:14:33.313Z,992.26
2017-10-06T02:15:33.309Z,992.23
2017-10-06T02:16:33.695Z,992.29
2017-10-06T02:17:33.301Z,992.24
2017-10-06T02:18:33.297Z,992.22
2017-10-06T02:19:33.292Z,992.2
2017-10-06T02:20:33.289Z,992.22
2017-10-06T02:21:33.285Z,992.19
2017-10-06T02:22:33.281Z,992.22
2017-10-06T02:23:33.277Z,992.23
2017-10-06T02:24:33.272Z,992.26
2017-10-06T02:25:33.270Z,992.25
2017-10-06T02:26:33.266Z,992.29
2017-10-06T02:27:33.261Z,992.26
2017-10-06T02:28:33.258Z,992.31
2017-10-06T02:29:33.253Z,992.28
2017-10-06T02:30:33.250Z,992.3
2017-10-06T02:31:33.245Z,992.28
2017-10-06T02:32:33.240Z,992.28
2017-10-06T02:33:33.239Z,992.24
2017-10-06T02:34:33.232Z,992.31
2017-10-06T02:35:33.227Z,992.25
2017-10-06T02:36:33.225Z,992.22
2017-10-06T02:37:33.222Z,992.25
2017-10-06T02:38:33.229Z,992.21
2017-10-06T02:39:33.213Z,992.24
2017-10-06T02:40:33.207Z,992.27
2017-10-06T02:41:33.202Z,992.28
2017-10-06T02:42:33.200Z,992.29
2017-10-06T02:43:33.195Z,992.31
2017-10-06T02:44:33.190Z,992.29
2017-10-06T02:45:33.187Z,992.2
2017-10-06T02:46:33.182Z,992.25
2017-10-06T02:47:33.178Z,992.24
2017-10-06T02:48:33.172Z,992.27
2017-10-06T02:49:33.169Z,992.25
2017-10-06T02:50:33.168Z,992.25
2017-10-06T02:51:33.169Z,992.22
2017-10-06T02:52:33.170Z,992.2
2017-10-06T02:53:33.150Z,992.2
2017-10-06T02:54:33.148Z,992.21
2017-10-06T02:55:33.143Z,992.23
2017-10-06T02:56:33.141Z,992.18
2017-10-06T02:57:33.135Z,992.26
2017-10-06T02:58:33.130Z,992.22
2017-10-06T02:59:33.128Z,992.22
2017-10-06T03:00:33.124Z,992.22
2017-10-06T03:01:33.116Z,992.22
2017-10-06T03:02:34.314Z,992.22
2017-10-06T03:03:33.108Z,992.25
2017-10-06T03:04:33.104Z,992.22
2017-10-06T03:05:33.104Z,992.27
2017-10-06T03:06:33.097Z,992.22
2017-10-06T03:07:33.093Z,992.25
2017-10-06T03:08:33.087Z,992.25
2017-10-06T03:09:33.086Z,992.24
2017-10-06T03:10:33.079Z,992.29
2017-10-06T03:11:33.074Z,992.27
2017-10-06T03:12:33.075Z,992.32
2017-10-06T03:13:33.066Z,992.25
2017-10-06T03:14:33.065Z,992.26
2017-10-06T03:15:33.063Z,992.21
2017-10-06T03:16:33.065Z,992.23
2017-10-06T03:17:33.053Z,992.25
2017-10-06T03:18:33.063Z,992.24
2017-10-06T03:19:33.057Z,992.27
2017-10-06T03:20:33.035Z,992.3
2017-10-06T03:21:33.031Z,992.3
2017-10-06T03:22:33.026Z,992.33
2017-10-06T03:23:33.033Z,992.33
2017-10-06T03:24:33.018Z,992.34
2017-10-06T03:25:33.013Z,992.32
2017-10-06T03:26:33.009Z,992.29
2017-10-06T03:27:33.005Z,992.3
2017-10-06T03:28:33.006Z,992.29
2017-10-06T03:29:33.028Z,992.31
2017-10-06T03:30:33.001Z,992.29
2017-10-06T03:31:32.998Z,992.38
2017-10-06T03:32:32.983Z,992.3
2017-10-06T03:33:32.980Z,992.35
2017-10-06T03:34:32.975Z,992.3
2017-10-06T03:35:32.971Z,992.32
2017-10-06T03:36:33.039Z,992.32
2017-10-06T03:37:32.967Z,992.3
2017-10-06T03:38:33.003Z,992.33
2017-10-06T03:39:32.955Z,992.32
2017-10-06T03:40:32.953Z,992.35
2017-10-06T03:41:32.949Z,992.32
2017-10-06T03:42:32.943Z,992.37
2017-10-06T03:43:32.940Z,992.37
2017-10-06T03:44:32.936Z,992.38
2017-10-06T03:45:32.932Z,992.38
2017-10-06T03:46:32.928Z,992.37
2017-10-06T03:47:32.923Z,992.33
2017-10-06T03:48:32.970Z,992.34
2017-10-06T03:49:32.916Z,992.32
2017-10-06T03:50:32.912Z,992.31
2017-10-06T03:51:32.913Z,992.3
2017-10-06T03:52:32.908Z,992.26
2017-10-06T03:53:32.904Z,992.3
2017-10-06T03:54:32.899Z,992.26
2017-10-06T03:55:32.893Z,992.24
2017-10-06T03:56:32.889Z,992.21
2017-10-06T03:57:32.884Z,992.22
2017-10-06T03:58:32.881Z,992.23
2017-10-06T03:59:32.878Z,992.2
2017-10-06T04:00:32.873Z,992.21
2017-10-06T04:01:32.870Z,992.26
2017-10-06T04:02:32.864Z,992.23
2017-10-06T04:03:32.863Z,992.27
2017-10-06T04:04:32.858Z,992.24
2017-10-06T04:05:32.854Z,992.23
2017-10-06T04:06:32.849Z,992.29
2017-10-06T04:07:32.847Z,992.26
2017-10-06T04:08:32.844Z,992.26
2017-10-06T04:09:32.840Z,992.23
2017-10-06T04:10:32.837Z,992.26
2017-10-06T04:11:32.831Z,992.32
2017-10-06T04:12:32.829Z,992.31
2017-10-06T04:13:32.824Z,992.31
2017-10-06T04:14:32.825Z,992.29
2017-10-06T04:15:32.816Z,992.29
2017-10-06T04:16:32.816Z,992.31
2017-10-06T04:17:32.810Z,992.3
2017-10-06T04:18:32.805Z,992.3
2017-10-06T04:19:32.802Z,992.29
2017-10-06T04:20:32.797Z,992.27
2017-10-06T04:21:32.793Z,992.29
2017-10-06T04:22:32.790Z,992.26
2017-10-06T04:23:32.789Z,992.23
2017-10-06T04:24:33.587Z,992.21
2017-10-06T04:25:32.791Z,992.23
2017-10-06T04:26:32.789Z,992.18
2017-10-06T04:27:32.785Z,992.18
2017-10-06T04:28:32.767Z,992.21
2017-10-06T04:29:32.763Z,992.2
2017-10-06T04:30:32.760Z,992.23
2017-10-06T04:31:32.755Z,992.23
2017-10-06T04:32:32.757Z,992.23
2017-10-06T04:33:32.749Z,992.21
2017-10-06T04:34:32.745Z,992.23
2017-10-06T04:35:32.740Z,992.2
2017-10-06T04:36:32.737Z,992.23
2017-10-06T04:37:32.734Z,992.24
2017-10-06T04:38:32.737Z,992.25
2017-10-06T04:39:32.734Z,992.27
2017-10-06T04:40:32.734Z,992.28
2017-10-06T04:41:32.719Z,992.29
2017-10-06T04:42:32.713Z,992.29
2017-10-06T04:43:32.711Z,992.3
2017-10-06T04:44:32.709Z,992.31
2017-10-06T04:45:32.705Z,992.25
2017-10-06T04:46:32.711Z,992.29
2017-10-06T04:47:32.697Z,992.27
2017-10-06T04:48:32.693Z,992.31
2017-10-06T04:49:32.689Z,992.28
2017-10-06T04:50:32.687Z,992.31
2017-10-06T04:51:32.681Z,992.31
2017-10-06T04:52:32.679Z,992.3
2017-10-06T04:53:32.674Z,992.33
2017-10-06T04:54:32.671Z,992.33
2017-10-06T04:55:32.668Z,992.3
2017-10-06T04:56:32.666Z,992.32
2017-10-06T04:57:32.660Z,992.3
2017-10-06T04:58:32.658Z,992.33
2017-10-06T04:59:32.657Z,992.34
2017-10-06T05:00:32.649Z,992.37
2017-10-06T05:01:32.645Z,992.4
2017-10-06T05:02:32.643Z,992.43
2017-10-06T05:03:32.639Z,992.47
2017-10-06T05:04:32.636Z,992.41
2017-10-06T05:05:32.782Z,992.44
2017-10-06T05:06:32.627Z,992.42
2017-10-06T05:07:32.628Z,992.48
2017-10-06T05:08:32.620Z,992.45
2017-10-06T05:09:32.618Z,992.43
2017-10-06T05:10:32.614Z,992.48
2017-10-06T05:11:32.610Z,992.46
2017-10-06T05:12:32.606Z,992.49
2017-10-06T05:13:32.602Z,992.48
2017-10-06T05:14:32.599Z,992.48
2017-10-06T05:15:32.595Z,992.52
2017-10-06T05:16:32.591Z,992.49
2017-10-06T05:17:32.588Z,992.52
2017-10-06T05:18:32.585Z,992.51
2017-10-06T05:19:32.581Z,992.48
2017-10-06T05:20:34.730Z,992.53
2017-10-06T05:21:32.575Z,992.49
2017-10-06T05:22:32.570Z,992.48
2017-10-06T05:23:32.567Z,992.46
2017-10-06T05:24:32.563Z,992.44
2017-10-06T05:25:32.561Z,992.49
2017-10-06T05:26:32.555Z,992.48
2017-10-06T05:27:32.552Z,992.49
2017-10-06T05:28:32.548Z,992.47
2017-10-06T05:29:32.545Z,992.52
2017-10-06T05:30:32.541Z,992.49
2017-10-06T05:31:32.537Z,992.54
2017-10-06T05:32:32.534Z,992.51
2017-10-06T05:33:32.530Z,992.47
2017-10-06T05:34:32.526Z,992.47
2017-10-06T05:35:32.523Z,992.48
2017-10-06T05:36:32.521Z,992.49
2017-10-06T05:37:32.516Z,992.43
2017-10-06T05:38:32.515Z,992.44
2017-10-06T05:39:32.513Z,992.51
2017-10-06T05:40:32.503Z,992.51
2017-10-06T05:41:32.505Z,992.51
2017-10-06T05:42:32.497Z,992.55
2017-10-06T05:43:32.498Z,992.51
2017-10-06T05:44:32.495Z,992.54
2017-10-06T05:45:32.486Z,992.53
2017-10-06T05:46:32.482Z,992.55
2017-10-06T05:47:32.478Z,992.52
2017-10-06T05:48:32.474Z,992.49
2017-10-06T05:49:32.473Z,992.52
2017-10-06T05:50:32.468Z,992.53
2017-10-06T05:51:32.463Z,992.54
2017-10-06T05:52:32.462Z,992.56
2017-10-06T05:53:32.456Z,992.54
2017-10-06T05:54:32.452Z,992.55
2017-10-06T05:55:32.450Z,992.59
2017-10-06T05:56:32.449Z,992.59
2017-10-06T05:57:32.445Z,992.61
2017-10-06T05:58:32.448Z,992.58
2017-10-06T05:59:32.434Z,992.57
2017-10-06T06:00:32.431Z,992.6
2017-10-06T06:01:32.428Z,992.66
2017-10-06T06:02:32.425Z,992.62
2017-10-06T06:03:32.426Z,992.64
2017-10-06T06:04:32.416Z,992.63
2017-10-06T06:05:32.415Z,992.67
2017-10-06T06:06:32.409Z,992.62
2017-10-06T06:07:32.405Z,992.63
2017-10-06T06:08:32.404Z,992.62
2017-10-06T06:09:32.398Z,992.62
2017-10-06T06:10:32.399Z,992.63
2017-10-06T06:11:32.391Z,992.59
2017-10-06T06:12:32.389Z,992.67
2017-10-06T06:13:32.384Z,992.62
2017-10-06T06:14:32.380Z,992.6
2017-10-06T06:15:32.379Z,992.64
2017-10-06T06:16:32.374Z,992.63
2017-10-06T06:17:32.376Z,992.64
2017-10-06T06:18:32.375Z,992.65
2017-10-06T06:19:32.376Z,992.69
2017-10-06T06:20:32.377Z,992.72
2017-10-06T06:21:32.355Z,992.74
2017-10-06T06:22:32.357Z,992.74
2017-10-06T06:23:32.357Z,992.75
2017-10-06T06:24:32.354Z,992.78
2017-10-06T06:25:32.353Z,992.77
2017-10-06T06:26:32.340Z,992.82
2017-10-06T06:27:32.338Z,992.83
2017-10-06T06:28:32.337Z,992.84
2017-10-06T06:29:32.336Z,992.88
2017-10-06T06:30:32.343Z,992.89
2017-10-06T06:31:32.324Z,992.88
2017-10-06T06:32:32.315Z,992.83
2017-10-06T06:33:32.317Z,992.91
2017-10-06T06:34:32.317Z,992.9
2017-10-06T06:35:32.318Z,992.9
2017-10-06T06:36:34.305Z,992.89
2017-10-06T06:37:32.301Z,992.85
2017-10-06T06:38:32.314Z,992.87
2017-10-06T06:39:32.298Z,992.86
2017-10-06T06:40:32.299Z,992.81
2017-10-06T06:41:32.289Z,992.82
2017-10-06T06:42:32.293Z,992.84
2017-10-06T06:43:32.287Z,992.91
2017-10-06T06:44:32.287Z,992.93
2017-10-06T06:45:32.285Z,992.92
2017-10-06T06:46:32.271Z,992.97
2017-10-06T06:47:32.270Z,992.94
2017-10-06T06:48:32.264Z,992.97
2017-10-06T06:49:32.262Z,992.99
2017-10-06T06:50:32.258Z,993
2017-10-06T06:51:32.256Z,993.03
2017-10-06T06:52:32.252Z,993.07
2017-10-06T06:53:32.249Z,993.07
2017-10-06T06:54:32.248Z,993.07
2017-10-06T06:55:32.247Z,993.04
2017-10-06T06:56:32.243Z,993.05
2017-10-06T06:57:32.239Z,993.05
2017-10-06T06:58:32.236Z,993.05
2017-10-06T06:59:32.232Z,993.07
2017-10-06T07:00:32.230Z,993.04
2017-10-06T07:01:32.227Z,993.06
2017-10-06T07:02:32.225Z,993.01
2017-10-06T07:03:32.222Z,993.03
2017-10-06T07:04:32.220Z,993.03
2017-10-06T07:05:32.220Z,993.04
2017-10-06T07:06:32.219Z,993.08
2017-10-06T07:07:32.217Z,993.05
2017-10-06T07:08:32.208Z,993.06
2017-10-06T07:09:32.205Z,993.11
2017-10-06T07:10:32.205Z,993.06
2017-10-06T07:11:32.202Z,993.09
2017-10-06T07:12:32.197Z,993.13
2017-10-06T07:13:32.195Z,993.19
2017-10-06T07:14:32.193Z,993.13
2017-10-06T07:15:32.190Z,993.17
2017-10-06T07:16:32.188Z,993.15
2017-10-06T07:17:32.185Z,993.15
2017-10-06T07:18:32.182Z,993.21
2017-10-06T07:19:32.180Z,993.2
2017-10-06T07:20:32.177Z,993.23
2017-10-06T07:21:32.179Z,993.15
2017-10-06T07:22:32.174Z,993.14
2017-10-06T07:23:32.176Z,993.04
2017-10-06T07:24:32.172Z,993.12
2017-10-06T07:25:32.173Z,993.12
2017-10-06T07:26:32.195Z,993.09
2017-10-06T07:27:32.174Z,993.08
2017-10-06T07:28:32.172Z,993.08
2017-10-06T07:29:32.164Z,993.11
2017-10-06T07:30:32.161Z,993.05
2017-10-06T07:31:32.160Z,993.12
2017-10-06T07:32:32.158Z,993.15
2017-10-06T07:33:32.157Z,993.15
2017-10-06T07:34:32.154Z,993.12
2017-10-06T07:35:32.154Z,993.15
2017-10-06T07:36:32.154Z,993.17
2017-10-06T07:37:32.152Z,993.12
2017-10-06T07:38:32.151Z,993.11
2017-10-06T07:39:32.151Z,993.23
2017-10-06T07:40:32.158Z,993.22
2017-10-06T07:41:32.149Z,993.17
2017-10-06T07:42:32.150Z,993.25
2017-10-06T07:43:32.148Z,993.21
2017-10-06T07:44:32.147Z,993.21
2017-10-06T07:45:32.147Z,993.21
2017-10-06T07:46:32.146Z,993.23
2017-10-06T07:47:32.147Z,993.2
2017-10-06T07:48:32.145Z,993.21
2017-10-06T07:49:32.148Z,993.22
2017-10-06T07:50:32.147Z,993.2
2017-10-06T07:51:32.145Z,993.28
2017-10-06T07:52:32.142Z,993.25
2017-10-06T07:53:32.144Z,993.24
2017-10-06T07:54:32.142Z,993.23
2017-10-06T07:55:32.140Z,993.22
2017-10-06T07:56:32.139Z,993.15
2017-10-06T07:57:32.141Z,993.18
2017-10-06T07:58:32.139Z,993.2
2017-10-06T07:59:32.136Z,993.15
2017-10-06T08:00:32.135Z,993.13
2017-10-06T08:01:32.136Z,993.18
2017-10-06T08:02:32.137Z,993.22
2017-10-06T08:03:32.133Z,993.2
2017-10-06T08:04:32.135Z,993.16
2017-10-06T08:05:32.136Z,993.16
2017-10-06T08:06:32.135Z,993.18
2017-10-06T08:07:34.188Z,993.23
2017-10-06T08:08:32.139Z,993.26
2017-10-06T08:09:32.136Z,993.2
2017-10-06T08:10:32.139Z,993.24
2017-10-06T08:11:32.143Z,993.21
2017-10-06T08:12:32.139Z,993.21
2017-10-06T08:13:32.137Z,993.18
2017-10-06T08:14:32.140Z,993.21
2017-10-06T08:15:32.139Z,993.21
2017-10-06T08:16:32.139Z,993.25
2017-10-06T08:17:32.141Z,993.23
2017-10-06T08:18:32.146Z,993.23
2017-10-06T08:19:32.140Z,993.19
2017-10-06T08:20:32.132Z,993.19
2017-10-06T08:21:32.131Z,993.22
2017-10-06T08:22:32.130Z,993.2
2017-10-06T08:23:32.143Z,993.21
2017-10-06T08:24:32.130Z,993.22
2017-10-06T08:25:32.131Z,993.24
2017-10-06T08:26:32.134Z,993.28
2017-10-06T08:27:32.129Z,993.24
2017-10-06T08:28:32.126Z,993.29
2017-10-06T08:29:32.126Z,993.24
2017-10-06T08:30:32.126Z,993.25
2017-10-06T08:31:32.126Z,993.25
2017-10-06T08:32:32.121Z,993.29
2017-10-06T08:33:32.122Z,993.3
2017-10-06T08:34:32.121Z,993.28
2017-10-06T08:35:32.120Z,993.31
2017-10-06T08:36:32.122Z,993.29
2017-10-06T08:37:32.133Z,993.36
2017-10-06T08:38:32.119Z,993.24
2017-10-06T08:39:32.118Z,993.35
2017-10-06T08:40:32.119Z,993.31
2017-10-06T08:41:32.129Z,993.32
2017-10-06T08:42:32.121Z,993.33
2017-10-06T08:43:32.117Z,993.39
2017-10-06T08:44:32.120Z,993.31
2017-10-06T08:45:32.114Z,993.31
2017-10-06T08:46:32.115Z,993.34
2017-10-06T08:47:32.113Z,993.32
2017-10-06T08:48:32.113Z,993.27
2017-10-06T08:49:32.113Z,993.25
2017-10-06T08:50:32.112Z,993.3
2017-10-06T08:51:32.113Z,993.35
2017-10-06T08:52:32.112Z,993.4
2017-10-06T08:53:32.112Z,993.4
2017-10-06T08:54:32.112Z,993.39
2017-10-06T08:55:32.111Z,993.4
2017-10-06T08:56:32.110Z,993.4
2017-10-06T08:57:32.113Z,993.36
2017-10-06T08:58:32.109Z,993.36
2017-10-06T08:59:32.110Z,993.36
2017-10-06T09:00:32.110Z,993.41
2017-10-06T09:01:32.110Z,993.41
2017-10-06T09:02:32.108Z,993.46
2017-10-06T09:03:32.111Z,993.36
2017-10-06T09:04:32.113Z,993.35
2017-10-06T09:05:32.107Z,993.35
2017-10-06T09:06:32.108Z,993.39
2017-10-06T09:07:32.113Z,993.41
2017-10-06T09:08:32.111Z,993.29
2017-10-06T09:09:32.108Z,993.31
2017-10-06T09:10:32.107Z,993.32
2017-10-06T09:11:32.109Z,993.26
2017-10-06T09:12:32.107Z,993.29
2017-10-06T09:13:32.108Z,993.28
2017-10-06T09:14:32.108Z,993.26
2017-10-06T09:15:32.109Z,993.2
2017-10-06T09:16:32.114Z,993.28
2017-10-06T09:17:32.109Z,993.43
2017-10-06T09:18:32.111Z,993.4
2017-10-06T09:19:32.109Z,993.33
2017-10-06T09:20:32.109Z,993.3
2017-10-06T09:21:32.111Z,993.37
2017-10-06T09:22:32.110Z,993.33
2017-10-06T09:23:32.108Z,993.39
2017-10-06T09:24:32.110Z,993.38
2017-10-06T09:25:32.109Z,993.37
2017-10-06T09:26:32.118Z,993.39
2017-10-06T09:27:32.112Z,993.37
2017-10-06T09:28:32.113Z,993.39
2017-10-06T09:29:32.113Z,993.41
2017-10-06T09:30:32.114Z,993.41
2017-10-06T09:31:32.111Z,993.4
2017-10-06T09:32:32.114Z,993.45
2017-10-06T09:33:32.113Z,993.44
2017-10-06T09:34:32.104Z,993.46
2017-10-06T09:35:32.105Z,993.45
2017-10-06T09:36:32.107Z,993.4
2017-10-06T09:37:32.105Z,993.51
2017-10-06T09:38:32.106Z,993.45
2017-10-06T09:39:32.105Z,993.53
2017-10-06T09:40:32.105Z,993.58
2017-10-06T09:41:32.104Z,993.5
2017-10-06T09:42:32.101Z,993.56
2017-10-06T09:43:32.103Z,993.5
2017-10-06T09:44:32.102Z,993.54
2017-10-06T09:45:32.101Z,993.52
2017-10-06T09:46:32.102Z,993.59
2017-10-06T09:47:32.105Z,993.61
2017-10-06T09:48:32.101Z,993.62
2017-10-06T10:06:41.623Z,993.63
2017-10-06T10:07:41.619Z,993.6
2017-10-06T10:08:41.619Z,993.56
2017-10-06T10:09:41.619Z,993.5
2017-10-06T10:10:41.618Z,993.57
2017-10-06T10:11:41.619Z,993.45
2017-10-06T10:12:41.620Z,993.55
2017-10-06T10:13:41.622Z,993.51
2017-10-06T10:14:41.620Z,993.56
2017-10-06T10:15:41.619Z,993.59
2017-10-06T10:16:41.620Z,993.57
2017-10-06T10:17:41.619Z,993.59
2017-10-06T10:18:41.628Z,993.56
2017-10-06T10:19:41.664Z,993.64
2017-10-06T10:20:41.620Z,993.66
2017-10-06T10:21:41.619Z,993.66
2017-10-06T10:22:41.619Z,993.6
2017-10-06T10:23:41.619Z,993.58
2017-10-06T10:24:41.619Z,993.6
2017-10-06T10:25:41.619Z,993.6
2017-10-06T10:26:41.617Z,993.63
2017-10-06T10:27:41.618Z,993.66
2017-10-06T10:28:41.617Z,993.69
2017-10-06T10:29:41.617Z,993.7
2017-10-06T10:30:41.616Z,993.76
2017-10-06T10:31:41.618Z,993.84
2017-10-06T10:32:41.616Z,993.85
2017-10-06T10:33:41.615Z,993.86
2017-10-06T10:34:41.615Z,993.82
2017-10-06T10:35:41.616Z,993.92
2017-10-06T10:36:41.614Z,993.86
2017-10-06T10:37:41.613Z,993.86
2017-10-06T10:38:41.613Z,993.77
2017-10-06T10:39:41.613Z,993.87
2017-10-06T10:40:41.613Z,993.89
2017-10-06T10:41:41.620Z,993.88
2017-10-06T10:42:41.615Z,993.85
2017-10-06T10:43:41.632Z,993.84
2017-10-06T10:44:41.614Z,993.82
2017-10-06T10:45:41.612Z,993.79
2017-10-06T10:46:41.615Z,993.84
2017-10-06T10:47:41.614Z,993.79
2017-10-06T10:48:41.613Z,993.89
2017-10-06T10:49:41.616Z,993.87
2017-10-06T10:50:41.615Z,993.85
2017-10-06T10:51:42.923Z,993.88
2017-10-06T10:52:41.620Z,993.95
2017-10-06T10:53:41.617Z,993.94
2017-10-06T10:54:41.612Z,993.9
2017-10-06T10:55:41.618Z,993.83
2017-10-06T10:56:41.618Z,993.91
2017-10-06T10:57:41.612Z,993.87
2017-10-06T10:58:41.618Z,993.88
2017-10-06T10:59:41.621Z,993.91
2017-10-06T11:00:41.612Z,993.89
2017-10-06T11:01:41.611Z,993.8
2017-10-06T11:02:41.612Z,993.7
2017-10-06T11:03:41.611Z,993.79
2017-10-06T11:04:41.614Z,993.73
2017-10-06T11:05:41.611Z,993.68
2017-10-06T11:06:41.611Z,993.72
2017-10-06T11:07:41.612Z,993.71
2017-10-06T11:08:41.613Z,993.81
2017-10-06T11:09:41.613Z,993.8
2017-10-06T11:10:41.611Z,993.77
2017-10-06T11:11:41.615Z,993.74
2017-10-06T11:12:41.612Z,993.77
2017-10-06T11:13:41.611Z,993.73
2017-10-06T11:14:41.613Z,993.68
2017-10-06T11:15:41.675Z,993.72
2017-10-06T11:16:41.690Z,993.68
2017-10-06T11:17:41.613Z,993.67
2017-10-06T11:18:41.611Z,993.68
2017-10-06T11:19:41.613Z,993.66
2017-10-06T11:20:41.610Z,993.7
2017-10-06T11:21:41.610Z,993.77
2017-10-06T11:22:41.610Z,993.74
2017-10-06T11:23:41.610Z,993.81
2017-10-06T11:24:41.612Z,993.76
2017-10-06T11:25:41.611Z,993.83
2017-10-06T11:26:41.612Z,993.8
2017-10-06T11:27:41.610Z,993.81
2017-10-06T11:28:41.613Z,993.82
2017-10-06T11:29:41.615Z,993.78
2017-10-06T11:30:41.612Z,993.72
2017-10-06T11:31:41.610Z,993.69
2017-10-06T11:32:41.608Z,993.72
2017-10-06T11:33:41.612Z,993.7
2017-10-06T11:34:41.607Z,993.68
2017-10-06T11:35:41.608Z,993.66
2017-10-06T11:36:41.608Z,993.6
2017-10-06T11:37:41.608Z,993.62
2017-10-06T11:38:41.607Z,993.7
2017-10-06T11:39:41.608Z,993.64
2017-10-06T11:40:41.608Z,993.68
2017-10-06T11:41:41.608Z,993.75
2017-10-06T11:42:41.606Z,993.78
2017-10-06T11:43:41.606Z,993.78
2017-10-06T11:44:41.605Z,993.9
2017-10-06T11:45:41.604Z,993.97
2017-10-06T11:46:41.605Z,993.91
2017-10-06T11:47:41.603Z,993.89
2017-10-06T11:48:41.610Z,993.88
2017-10-06T11:49:41.607Z,993.88
2017-10-06T11:50:41.612Z,993.87
2017-10-06T11:51:41.607Z,993.9
2017-10-06T11:52:41.605Z,993.88
2017-10-06T11:53:41.609Z,993.87
2017-10-06T11:54:41.607Z,993.81
2017-10-06T11:55:41.608Z,993.84
2017-10-06T11:56:41.597Z,993.87
2017-10-06T11:57:41.596Z,993.83
2017-10-06T11:58:41.600Z,993.81
2017-10-06T11:59:41.598Z,993.84
2017-10-06T12:00:41.594Z,993.9
2017-10-06T12:01:41.594Z,993.81
2017-10-06T12:02:41.596Z,993.85
2017-10-06T12:03:41.594Z,993.87
2017-10-06T12:04:41.597Z,993.9
2017-10-06T12:05:41.590Z,993.93
2017-10-06T12:06:41.590Z,993.91
2017-10-06T12:07:41.591Z,993.93
2017-10-06T12:08:41.589Z,993.91
2017-10-06T12:09:41.591Z,993.96
2017-10-06T12:10:41.588Z,993.95
2017-10-06T12:11:41.587Z,993.95
2017-10-06T12:12:41.586Z,993.92
2017-10-06T12:13:41.585Z,993.93
2017-10-06T12:14:41.585Z,993.94
2017-10-06T12:15:41.638Z,993.94
2017-10-06T12:16:41.583Z,994.04
2017-10-06T12:17:41.584Z,993.99
2017-10-06T12:18:41.584Z,993.99
2017-10-06T12:19:41.583Z,994.02
2017-10-06T12:20:41.585Z,993.98
2017-10-06T12:21:41.586Z,994.03
2017-10-06T12:22:41.587Z,994.02
2017-10-06T12:23:41.581Z,994.01
2017-10-06T12:24:41.614Z,993.96
2017-10-06T12:25:41.582Z,993.86
2017-10-06T12:26:41.581Z,993.78
2017-10-06T12:27:41.583Z,993.75
2017-10-06T12:28:41.583Z,993.84
2017-10-06T12:29:41.583Z,993.84
2017-10-06T12:30:41.585Z,993.84
2017-10-06T12:31:41.581Z,993.79
2017-10-06T12:32:41.580Z,993.78
2017-10-06T12:33:41.580Z,993.81
2017-10-06T12:34:41.580Z,993.82
2017-10-06T12:35:41.578Z,993.82
2017-10-06T12:36:41.580Z,993.85
2017-10-06T12:37:41.578Z,993.88
2017-10-06T12:38:41.577Z,993.97
2017-10-06T12:39:41.577Z,994.03
2017-10-06T12:40:41.574Z,994.04
2017-10-06T12:41:41.579Z,994.12
2017-10-06T12:42:41.574Z,994.22
2017-10-06T12:43:41.573Z,994.09
2017-10-06T12:44:41.577Z,994.16
2017-10-06T12:45:41.577Z,994.27
2017-10-06T12:46:41.566Z,994.23
2017-10-06T12:47:41.563Z,994.25
2017-10-06T12:48:41.562Z,994.24